sensor_id;sensor_type;location;lat;lon;timestamp;P1;durP1;ratioP1;P2;durP2;ratioP2
3141;SDS011;1581;51.568;6.998;2023-03-08T00:00:39;25.47;;;15.53;;
3141;SDS011;1581;51.568;6.998;2023-03-08T00:03:08;25.13;;;14.73;;
3141;SDS011;1581;51.568;6.998;2023-03-08T00:05:39;25.30;;;14.40;;
3141;SDS011;1581;51.568;6.998;2023-03-08T00:08:06;25.13;;;14.70;;
3141;SDS011;1581;51.568;6.998;2023-03-08T00:10:34;28.57;;;15.23;;
3141;SDS011;1581;51.568;6.998;2023-03-08T00:13:03;29.53;;;15.23;;
3141;SDS011;1581;51.568;6.998;2023-03-08T00:15:32;29.60;;;18.33;;
3141;SDS011;1581;51.568;6.998;2023-03-08T00:18:02;31.70;;;17.90;;
3141;SDS011;1581;51.568;6.998;2023-03-08T00:20:30;30.07;;;17.53;;
3141;SDS011;1581;51.568;6.998;2023-03-08T00:22:58;33.97;;;19.23;;
3141;SDS011;1581;51.568;6.998;2023-03-08T00:25:26;34.50;;;18.50;;
3141;SDS011;1581;51.568;6.998;2023-03-08T00:27:53;33.43;;;18.47;;
3141;SDS011;1581;51.568;6.998;2023-03-08T00:30:21;38.00;;;20.03;;
3141;SDS011;1581;51.568;6.998;2023-03-08T00:32:50;34.63;;;20.23;;
3141;SDS011;1581;51.568;6.998;2023-03-08T00:35:18;42.07;;;20.73;;
3141;SDS011;1581;51.568;6.998;2023-03-08T00:37:45;38.50;;;19.00;;
3141;SDS011;1581;51.568;6.998;2023-03-08T00:40:13;37.57;;;19.00;;
3141;SDS011;1581;51.568;6.998;2023-03-08T00:42:41;35.00;;;19.80;;
3141;SDS011;1581;51.568;6.998;2023-03-08T00:45:09;44.70;;;21.13;;
3141;SDS011;1581;51.568;6.998;2023-03-08T00:47:37;38.47;;;18.93;;
3141;SDS011;1581;51.568;6.998;2023-03-08T00:50:07;37.33;;;20.40;;
3141;SDS011;1581;51.568;6.998;2023-03-08T00:52:36;36.27;;;19.80;;
3141;SDS011;1581;51.568;6.998;2023-03-08T00:55:04;39.40;;;19.10;;
3141;SDS011;1581;51.568;6.998;2023-03-08T00:57:32;34.27;;;18.63;;
3141;SDS011;1581;51.568;6.998;2023-03-08T01:00:00;37.10;;;18.40;;
3141;SDS011;1581;51.568;6.998;2023-03-08T01:02:32;32.03;;;17.40;;
3141;SDS011;1581;51.568;6.998;2023-03-08T01:05:02;30.43;;;17.80;;
3141;SDS011;1581;51.568;6.998;2023-03-08T01:07:31;36.00;;;18.00;;
3141;SDS011;1581;51.568;6.998;2023-03-08T01:09:59;36.90;;;18.20;;
3141;SDS011;1581;51.568;6.998;2023-03-08T01:12:30;30.37;;;17.00;;
3141;SDS011;1581;51.568;6.998;2023-03-08T01:14:58;34.90;;;17.63;;
3141;SDS011;1581;51.568;6.998;2023-03-08T01:17:26;30.90;;;17.50;;
3141;SDS011;1581;51.568;6.998;2023-03-08T01:19:54;32.10;;;17.30;;
3141;SDS011;1581;51.568;6.998;2023-03-08T01:22:22;33.87;;;18.17;;
3141;SDS011;1581;51.568;6.998;2023-03-08T01:24:51;34.10;;;16.83;;
3141;SDS011;1581;51.568;6.998;2023-03-08T01:27:19;28.07;;;15.37;;
3141;SDS011;1581;51.568;6.998;2023-03-08T01:29:46;42.43;;;17.80;;
3141;SDS011;1581;51.568;6.998;2023-03-08T01:32:14;28.43;;;16.70;;
3141;SDS011;1581;51.568;6.998;2023-03-08T01:34:42;31.47;;;16.73;;
3141;SDS011;1581;51.568;6.998;2023-03-08T01:37:09;33.67;;;17.20;;
3141;SDS011;1581;51.568;6.998;2023-03-08T01:39:37;37.53;;;17.40;;
3141;SDS011;1581;51.568;6.998;2023-03-08T01:42:06;31.60;;;16.83;;
3141;SDS011;1581;51.568;6.998;2023-03-08T01:44:51;34.30;;;18.93;;
3141;SDS011;1581;51.568;6.998;2023-03-08T01:47:21;31.20;;;18.00;;
3141;SDS011;1581;51.568;6.998;2023-03-08T01:49:51;28.80;;;16.07;;
3141;SDS011;1581;51.568;6.998;2023-03-08T01:52:21;27.37;;;16.43;;
3141;SDS011;1581;51.568;6.998;2023-03-08T01:54:54;36.53;;;18.20;;
3141;SDS011;1581;51.568;6.998;2023-03-08T01:57:27;37.67;;;18.60;;
3141;SDS011;1581;51.568;6.998;2023-03-08T02:00:01;36.20;;;17.97;;
3141;SDS011;1581;51.568;6.998;2023-03-08T02:02:43;35.10;;;18.20;;
3141;SDS011;1581;51.568;6.998;2023-03-08T02:05:16;37.40;;;17.10;;
3141;SDS011;1581;51.568;6.998;2023-03-08T02:07:45;35.93;;;18.97;;
3141;SDS011;1581;51.568;6.998;2023-03-08T02:10:12;36.87;;;19.77;;
3141;SDS011;1581;51.568;6.998;2023-03-08T02:12:43;38.30;;;19.00;;
3141;SDS011;1581;51.568;6.998;2023-03-08T02:15:12;39.60;;;19.80;;
3141;SDS011;1581;51.568;6.998;2023-03-08T02:17:43;43.13;;;18.70;;
3141;SDS011;1581;51.568;6.998;2023-03-08T02:20:12;41.80;;;18.40;;
3141;SDS011;1581;51.568;6.998;2023-03-08T02:22:45;46.77;;;19.20;;
3141;SDS011;1581;51.568;6.998;2023-03-08T02:25:17;40.80;;;17.77;;
3141;SDS011;1581;51.568;6.998;2023-03-08T02:27:47;34.20;;;18.87;;
3141;SDS011;1581;51.568;6.998;2023-03-08T02:30:17;29.90;;;16.70;;
3141;SDS011;1581;51.568;6.998;2023-03-08T02:32:51;28.50;;;16.30;;
3141;SDS011;1581;51.568;6.998;2023-03-08T02:35:18;30.20;;;16.70;;
3141;SDS011;1581;51.568;6.998;2023-03-08T02:37:47;31.60;;;16.77;;
3141;SDS011;1581;51.568;6.998;2023-03-08T02:40:15;28.17;;;15.83;;
3141;SDS011;1581;51.568;6.998;2023-03-08T02:42:44;33.07;;;17.10;;
3141;SDS011;1581;51.568;6.998;2023-03-08T02:45:12;30.17;;;18.07;;
3141;SDS011;1581;51.568;6.998;2023-03-08T02:47:39;33.50;;;17.57;;
3141;SDS011;1581;51.568;6.998;2023-03-08T02:50:08;30.20;;;16.80;;
3141;SDS011;1581;51.568;6.998;2023-03-08T02:52:36;33.63;;;16.83;;
3141;SDS011;1581;51.568;6.998;2023-03-08T02:55:06;33.93;;;16.40;;
3141;SDS011;1581;51.568;6.998;2023-03-08T02:57:34;27.83;;;17.27;;
3141;SDS011;1581;51.568;6.998;2023-03-08T03:00:02;29.97;;;16.90;;
3141;SDS011;1581;51.568;6.998;2023-03-08T03:02:31;27.30;;;15.40;;
3141;SDS011;1581;51.568;6.998;2023-03-08T03:05:00;29.83;;;15.13;;
3141;SDS011;1581;51.568;6.998;2023-03-08T03:07:29;26.50;;;14.40;;
3141;SDS011;1581;51.568;6.998;2023-03-08T03:10:00;25.30;;;14.57;;
3141;SDS011;1581;51.568;6.998;2023-03-08T03:12:29;27.43;;;14.50;;
3141;SDS011;1581;51.568;6.998;2023-03-08T03:14:57;30.83;;;14.77;;
3141;SDS011;1581;51.568;6.998;2023-03-08T03:17:26;26.17;;;14.80;;
3141;SDS011;1581;51.568;6.998;2023-03-08T03:19:54;20.87;;;11.93;;
3141;SDS011;1581;51.568;6.998;2023-03-08T03:22:21;22.77;;;12.60;;
3141;SDS011;1581;51.568;6.998;2023-03-08T03:24:49;25.40;;;12.70;;
3141;SDS011;1581;51.568;6.998;2023-03-08T03:27:17;20.13;;;12.83;;
3141;SDS011;1581;51.568;6.998;2023-03-08T03:29:46;28.27;;;11.93;;
3141;SDS011;1581;51.568;6.998;2023-03-08T03:32:14;20.90;;;11.87;;
3141;SDS011;1581;51.568;6.998;2023-03-08T03:34:42;18.00;;;10.00;;
3141;SDS011;1581;51.568;6.998;2023-03-08T03:37:10;16.50;;;10.00;;
3141;SDS011;1581;51.568;6.998;2023-03-08T03:39:37;22.87;;;11.70;;
3141;SDS011;1581;51.568;6.998;2023-03-08T03:42:05;21.90;;;11.43;;
3141;SDS011;1581;51.568;6.998;2023-03-08T03:44:34;21.17;;;12.20;;
3141;SDS011;1581;51.568;6.998;2023-03-08T03:47:03;25.97;;;13.03;;
3141;SDS011;1581;51.568;6.998;2023-03-08T03:49:31;20.20;;;11.23;;
3141;SDS011;1581;51.568;6.998;2023-03-08T03:51:59;19.80;;;11.80;;
3141;SDS011;1581;51.568;6.998;2023-03-08T03:54:26;21.33;;;11.70;;
3141;SDS011;1581;51.568;6.998;2023-03-08T03:56:54;20.00;;;10.80;;
3141;SDS011;1581;51.568;6.998;2023-03-08T03:59:22;18.73;;;10.90;;
3141;SDS011;1581;51.568;6.998;2023-03-08T04:01:50;21.40;;;12.07;;
3141;SDS011;1581;51.568;6.998;2023-03-08T04:04:20;27.80;;;12.40;;
3141;SDS011;1581;51.568;6.998;2023-03-08T04:06:47;23.80;;;11.50;;
3141;SDS011;1581;51.568;6.998;2023-03-08T04:09:15;20.40;;;12.07;;
3141;SDS011;1581;51.568;6.998;2023-03-08T04:11:44;24.53;;;11.73;;
3141;SDS011;1581;51.568;6.998;2023-03-08T04:14:12;19.63;;;12.17;;
3141;SDS011;1581;51.568;6.998;2023-03-08T04:16:40;20.70;;;11.23;;
3141;SDS011;1581;51.568;6.998;2023-03-08T04:19:09;16.77;;;11.20;;
3141;SDS011;1581;51.568;6.998;2023-03-08T04:21:40;18.20;;;11.27;;
3141;SDS011;1581;51.568;6.998;2023-03-08T04:24:08;21.50;;;11.50;;
3141;SDS011;1581;51.568;6.998;2023-03-08T04:26:36;16.90;;;10.60;;
3141;SDS011;1581;51.568;6.998;2023-03-08T04:29:03;20.87;;;11.97;;
3141;SDS011;1581;51.568;6.998;2023-03-08T04:31:32;20.23;;;12.00;;
3141;SDS011;1581;51.568;6.998;2023-03-08T04:34:01;20.40;;;11.43;;
3141;SDS011;1581;51.568;6.998;2023-03-08T04:36:29;19.90;;;11.10;;
3141;SDS011;1581;51.568;6.998;2023-03-08T04:38:58;18.37;;;10.60;;
3141;SDS011;1581;51.568;6.998;2023-03-08T04:41:26;19.00;;;10.87;;
3141;SDS011;1581;51.568;6.998;2023-03-08T04:43:54;20.83;;;11.07;;
3141;SDS011;1581;51.568;6.998;2023-03-08T04:46:23;19.47;;;10.60;;
3141;SDS011;1581;51.568;6.998;2023-03-08T04:48:53;17.30;;;10.30;;
3141;SDS011;1581;51.568;6.998;2023-03-08T04:51:22;18.60;;;10.53;;
3141;SDS011;1581;51.568;6.998;2023-03-08T04:53:51;23.63;;;12.67;;
3141;SDS011;1581;51.568;6.998;2023-03-08T04:56:20;19.80;;;11.23;;
3141;SDS011;1581;51.568;6.998;2023-03-08T04:58:48;22.03;;;11.73;;
3141;SDS011;1581;51.568;6.998;2023-03-08T05:01:17;24.47;;;11.90;;
3141;SDS011;1581;51.568;6.998;2023-03-08T05:03:47;20.83;;;11.70;;
3141;SDS011;1581;51.568;6.998;2023-03-08T05:06:15;24.30;;;12.17;;
3141;SDS011;1581;51.568;6.998;2023-03-08T05:08:44;21.57;;;11.50;;
3141;SDS011;1581;51.568;6.998;2023-03-08T05:11:12;20.83;;;12.40;;
3141;SDS011;1581;51.568;6.998;2023-03-08T05:13:45;19.87;;;11.33;;
3141;SDS011;1581;51.568;6.998;2023-03-08T05:16:13;23.47;;;12.70;;
3141;SDS011;1581;51.568;6.998;2023-03-08T05:18:41;21.13;;;11.63;;
3141;SDS011;1581;51.568;6.998;2023-03-08T05:21:09;20.77;;;11.73;;
3141;SDS011;1581;51.568;6.998;2023-03-08T05:23:39;22.13;;;10.70;;
3141;SDS011;1581;51.568;6.998;2023-03-08T05:26:09;25.20;;;11.90;;
3141;SDS011;1581;51.568;6.998;2023-03-08T05:28:38;17.47;;;10.97;;
3141;SDS011;1581;51.568;6.998;2023-03-08T05:31:09;19.53;;;11.70;;
3141;SDS011;1581;51.568;6.998;2023-03-08T05:33:40;25.07;;;11.30;;
3141;SDS011;1581;51.568;6.998;2023-03-08T05:36:10;20.30;;;11.13;;
3141;SDS011;1581;51.568;6.998;2023-03-08T05:38:39;24.33;;;11.37;;
3141;SDS011;1581;51.568;6.998;2023-03-08T05:41:08;32.13;;;12.93;;
3141;SDS011;1581;51.568;6.998;2023-03-08T05:43:39;22.73;;;12.63;;
3141;SDS011;1581;51.568;6.998;2023-03-08T05:46:09;24.57;;;12.00;;
3141;SDS011;1581;51.568;6.998;2023-03-08T05:48:39;25.60;;;13.67;;
3141;SDS011;1581;51.568;6.998;2023-03-08T05:51:08;22.80;;;13.70;;
3141;SDS011;1581;51.568;6.998;2023-03-08T05:53:37;26.20;;;13.10;;
3141;SDS011;1581;51.568;6.998;2023-03-08T05:56:06;27.13;;;14.40;;
3141;SDS011;1581;51.568;6.998;2023-03-08T05:58:36;23.57;;;13.37;;
3141;SDS011;1581;51.568;6.998;2023-03-08T06:01:09;25.77;;;13.40;;
3141;SDS011;1581;51.568;6.998;2023-03-08T06:03:40;20.30;;;11.67;;
3141;SDS011;1581;51.568;6.998;2023-03-08T06:06:09;28.00;;;13.67;;
3141;SDS011;1581;51.568;6.998;2023-03-08T06:08:37;21.60;;;12.47;;
3141;SDS011;1581;51.568;6.998;2023-03-08T06:11:05;26.33;;;13.73;;
3141;SDS011;1581;51.568;6.998;2023-03-08T06:13:33;24.73;;;12.00;;
3141;SDS011;1581;51.568;6.998;2023-03-08T06:16:02;22.73;;;12.00;;
3141;SDS011;1581;51.568;6.998;2023-03-08T06:18:32;19.73;;;11.53;;
3141;SDS011;1581;51.568;6.998;2023-03-08T06:21:02;20.77;;;11.87;;
3141;SDS011;1581;51.568;6.998;2023-03-08T06:23:32;21.30;;;11.27;;
3141;SDS011;1581;51.568;6.998;2023-03-08T06:26:01;20.63;;;10.17;;
3141;SDS011;1581;51.568;6.998;2023-03-08T06:28:30;17.90;;;11.13;;
3141;SDS011;1581;51.568;6.998;2023-03-08T06:30:58;19.93;;;11.57;;
3141;SDS011;1581;51.568;6.998;2023-03-08T06:33:27;18.90;;;11.03;;
3141;SDS011;1581;51.568;6.998;2023-03-08T06:35:59;16.57;;;9.00;;
3141;SDS011;1581;51.568;6.998;2023-03-08T06:38:29;12.17;;;7.37;;
3141;SDS011;1581;51.568;6.998;2023-03-08T06:40:59;14.13;;;8.13;;
3141;SDS011;1581;51.568;6.998;2023-03-08T06:43:28;12.60;;;7.50;;
3141;SDS011;1581;51.568;6.998;2023-03-08T06:45:55;14.90;;;8.60;;
3141;SDS011;1581;51.568;6.998;2023-03-08T06:48:23;12.83;;;7.10;;
3141;SDS011;1581;51.568;6.998;2023-03-08T06:50:52;12.43;;;7.60;;
3141;SDS011;1581;51.568;6.998;2023-03-08T06:53:21;12.03;;;6.70;;
3141;SDS011;1581;51.568;6.998;2023-03-08T06:55:49;13.53;;;6.80;;
3141;SDS011;1581;51.568;6.998;2023-03-08T06:58:17;11.67;;;7.40;;
3141;SDS011;1581;51.568;6.998;2023-03-08T07:00:45;14.00;;;7.70;;
3141;SDS011;1581;51.568;6.998;2023-03-08T07:03:12;15.43;;;7.90;;
3141;SDS011;1581;51.568;6.998;2023-03-08T07:05:41;14.43;;;7.50;;
3141;SDS011;1581;51.568;6.998;2023-03-08T07:08:08;13.10;;;7.23;;
3141;SDS011;1581;51.568;6.998;2023-03-08T07:10:38;13.97;;;6.97;;
3141;SDS011;1581;51.568;6.998;2023-03-08T07:13:05;9.80;;;5.30;;
3141;SDS011;1581;51.568;6.998;2023-03-08T07:15:33;14.60;;;5.53;;
3141;SDS011;1581;51.568;6.998;2023-03-08T07:18:05;9.47;;;5.70;;
3141;SDS011;1581;51.568;6.998;2023-03-08T07:20:33;7.47;;;5.00;;
3141;SDS011;1581;51.568;6.998;2023-03-08T07:23:01;10.53;;;4.97;;
3141;SDS011;1581;51.568;6.998;2023-03-08T07:25:28;19.13;;;5.33;;
3141;SDS011;1581;51.568;6.998;2023-03-08T07:27:58;7.47;;;5.50;;
3141;SDS011;1581;51.568;6.998;2023-03-08T07:30:26;12.23;;;5.90;;
3141;SDS011;1581;51.568;6.998;2023-03-08T07:32:54;10.67;;;5.40;;
3141;SDS011;1581;51.568;6.998;2023-03-08T07:35:22;10.80;;;5.50;;
3141;SDS011;1581;51.568;6.998;2023-03-08T07:37:50;10.70;;;5.60;;
3141;SDS011;1581;51.568;6.998;2023-03-08T07:40:18;13.23;;;6.23;;
3141;SDS011;1581;51.568;6.998;2023-03-08T07:42:46;10.47;;;5.77;;
3141;SDS011;1581;51.568;6.998;2023-03-08T07:45:15;7.60;;;4.20;;
3141;SDS011;1581;51.568;6.998;2023-03-08T07:47:43;10.70;;;5.33;;
3141;SDS011;1581;51.568;6.998;2023-03-08T07:50:11;10.27;;;5.20;;
3141;SDS011;1581;51.568;6.998;2023-03-08T07:52:38;11.80;;;5.07;;
3141;SDS011;1581;51.568;6.998;2023-03-08T07:55:07;8.30;;;5.57;;
3141;SDS011;1581;51.568;6.998;2023-03-08T07:57:35;8.70;;;4.97;;
3141;SDS011;1581;51.568;6.998;2023-03-08T08:00:03;8.90;;;4.67;;
3141;SDS011;1581;51.568;6.998;2023-03-08T08:02:36;8.50;;;5.27;;
3141;SDS011;1581;51.568;6.998;2023-03-08T08:05:04;10.87;;;4.50;;
3141;SDS011;1581;51.568;6.998;2023-03-08T08:07:32;8.73;;;5.03;;
3141;SDS011;1581;51.568;6.998;2023-03-08T08:10:00;7.17;;;4.10;;
3141;SDS011;1581;51.568;6.998;2023-03-08T08:12:28;6.37;;;4.10;;
3141;SDS011;1581;51.568;6.998;2023-03-08T08:14:55;8.40;;;4.73;;
3141;SDS011;1581;51.568;6.998;2023-03-08T08:17:24;6.30;;;4.40;;
3141;SDS011;1581;51.568;6.998;2023-03-08T08:19:53;3.83;;;2.70;;
3141;SDS011;1581;51.568;6.998;2023-03-08T08:22:21;6.07;;;3.20;;
3141;SDS011;1581;51.568;6.998;2023-03-08T08:24:48;3.10;;;2.80;;
3141;SDS011;1581;51.568;6.998;2023-03-08T08:27:16;5.33;;;2.70;;
3141;SDS011;1581;51.568;6.998;2023-03-08T08:29:44;2.67;;;2.27;;
3141;SDS011;1581;51.568;6.998;2023-03-08T08:32:13;4.37;;;2.40;;
3141;SDS011;1581;51.568;6.998;2023-03-08T08:34:41;3.40;;;2.80;;
3141;SDS011;1581;51.568;6.998;2023-03-08T08:37:10;3.53;;;2.50;;
3141;SDS011;1581;51.568;6.998;2023-03-08T08:39:38;4.47;;;3.07;;
3141;SDS011;1581;51.568;6.998;2023-03-08T08:42:06;3.60;;;2.50;;
3141;SDS011;1581;51.568;6.998;2023-03-08T08:44:34;4.23;;;3.00;;
3141;SDS011;1581;51.568;6.998;2023-03-08T08:47:02;5.87;;;3.17;;
3141;SDS011;1581;51.568;6.998;2023-03-08T08:49:30;5.03;;;3.50;;
3141;SDS011;1581;51.568;6.998;2023-03-08T08:51:58;4.53;;;3.10;;
3141;SDS011;1581;51.568;6.998;2023-03-08T08:54:27;10.53;;;3.80;;
3141;SDS011;1581;51.568;6.998;2023-03-08T08:56:54;6.23;;;3.00;;
3141;SDS011;1581;51.568;6.998;2023-03-08T08:59:22;3.23;;;2.80;;
3141;SDS011;1581;51.568;6.998;2023-03-08T09:01:50;4.53;;;2.87;;
3141;SDS011;1581;51.568;6.998;2023-03-08T09:04:17;9.27;;;2.43;;
3141;SDS011;1581;51.568;6.998;2023-03-08T09:06:45;2.30;;;1.73;;
3141;SDS011;1581;51.568;6.998;2023-03-08T09:09:13;3.47;;;2.13;;
3141;SDS011;1581;51.568;6.998;2023-03-08T09:11:43;2.40;;;1.83;;
3141;SDS011;1581;51.568;6.998;2023-03-08T09:14:12;2.70;;;2.23;;
3141;SDS011;1581;51.568;6.998;2023-03-08T09:16:40;1.90;;;1.70;;
3141;SDS011;1581;51.568;6.998;2023-03-08T09:19:07;2.00;;;1.60;;
3141;SDS011;1581;51.568;6.998;2023-03-08T09:21:36;2.40;;;2.20;;
3141;SDS011;1581;51.568;6.998;2023-03-08T09:24:04;3.70;;;2.50;;
3141;SDS011;1581;51.568;6.998;2023-03-08T09:26:34;3.07;;;2.27;;
3141;SDS011;1581;51.568;6.998;2023-03-08T09:29:03;2.30;;;2.10;;
3141;SDS011;1581;51.568;6.998;2023-03-08T09:31:31;2.17;;;1.87;;
3141;SDS011;1581;51.568;6.998;2023-03-08T09:34:01;2.23;;;2.03;;
3141;SDS011;1581;51.568;6.998;2023-03-08T09:36:33;3.87;;;2.50;;
3141;SDS011;1581;51.568;6.998;2023-03-08T09:39:01;5.67;;;2.03;;
3141;SDS011;1581;51.568;6.998;2023-03-08T09:41:36;6.00;;;2.53;;
3141;SDS011;1581;51.568;6.998;2023-03-08T09:44:21;3.20;;;2.53;;
3141;SDS011;1581;51.568;6.998;2023-03-08T09:47:34;2.40;;;2.20;;
3141;SDS011;1581;51.568;6.998;2023-03-08T09:50:16;2.50;;;2.00;;
3141;SDS011;1581;51.568;6.998;2023-03-08T09:53:06;2.27;;;2.07;;
3141;SDS011;1581;51.568;6.998;2023-03-08T09:55:47;2.00;;;1.73;;
3141;SDS011;1581;51.568;6.998;2023-03-08T09:58:27;3.03;;;2.43;;
3141;SDS011;1581;51.568;6.998;2023-03-08T10:01:11;1.97;;;1.87;;
3141;SDS011;1581;51.568;6.998;2023-03-08T10:07:05;1.70;;;1.60;;
3141;SDS011;1581;51.568;6.998;2023-03-08T10:09:47;2.10;;;2.00;;
3141;SDS011;1581;51.568;6.998;2023-03-08T10:12:28;2.87;;;1.43;;
3141;SDS011;1581;51.568;6.998;2023-03-08T10:15:03;1.93;;;1.83;;
3141;SDS011;1581;51.568;6.998;2023-03-08T10:17:43;3.00;;;2.63;;
3141;SDS011;1581;51.568;6.998;2023-03-08T10:20:18;2.07;;;1.87;;
3141;SDS011;1581;51.568;6.998;2023-03-08T10:22:50;2.33;;;2.20;;
3141;SDS011;1581;51.568;6.998;2023-03-08T10:25:24;3.30;;;2.50;;
3141;SDS011;1581;51.568;6.998;2023-03-08T10:27:56;3.57;;;3.07;;
3141;SDS011;1581;51.568;6.998;2023-03-08T10:30:27;3.63;;;2.73;;
3141;SDS011;1581;51.568;6.998;2023-03-08T10:33:02;5.13;;;3.80;;
3141;SDS011;1581;51.568;6.998;2023-03-08T10:35:35;4.60;;;3.03;;
3141;SDS011;1581;51.568;6.998;2023-03-08T10:38:04;6.17;;;4.30;;
3141;SDS011;1581;51.568;6.998;2023-03-08T10:40:42;4.87;;;3.90;;
3141;SDS011;1581;51.568;6.998;2023-03-08T10:43:13;5.97;;;4.40;;
3141;SDS011;1581;51.568;6.998;2023-03-08T10:45:56;5.90;;;4.70;;
3141;SDS011;1581;51.568;6.998;2023-03-08T10:48:29;8.53;;;5.20;;
3141;SDS011;1581;51.568;6.998;2023-03-08T10:50:57;10.57;;;7.37;;
3141;SDS011;1581;51.568;6.998;2023-03-08T10:53:27;6.87;;;5.77;;
3141;SDS011;1581;51.568;6.998;2023-03-08T10:55:57;10.40;;;7.47;;
3141;SDS011;1581;51.568;6.998;2023-03-08T10:58:31;7.90;;;5.30;;
3141;SDS011;1581;51.568;6.998;2023-03-08T11:01:01;8.20;;;6.60;;
3141;SDS011;1581;51.568;6.998;2023-03-08T11:03:33;6.50;;;5.10;;
3141;SDS011;1581;51.568;6.998;2023-03-08T11:06:01;5.80;;;4.73;;
3141;SDS011;1581;51.568;6.998;2023-03-08T11:08:37;9.70;;;5.67;;
3141;SDS011;1581;51.568;6.998;2023-03-08T11:11:16;6.33;;;5.47;;
3141;SDS011;1581;51.568;6.998;2023-03-08T11:13:44;8.57;;;5.77;;
3141;SDS011;1581;51.568;6.998;2023-03-08T11:16:21;7.27;;;5.83;;
3141;SDS011;1581;51.568;6.998;2023-03-08T11:19:18;6.13;;;4.70;;
3141;SDS011;1581;51.568;6.998;2023-03-08T11:22:17;4.00;;;3.60;;
3141;SDS011;1581;51.568;6.998;2023-03-08T11:24:59;4.20;;;3.90;;
3141;SDS011;1581;51.568;6.998;2023-03-08T11:27:44;2.90;;;2.60;;
3141;SDS011;1581;51.568;6.998;2023-03-08T11:30:39;2.50;;;2.30;;
3141;SDS011;1581;51.568;6.998;2023-03-08T11:33:27;2.67;;;2.20;;
3141;SDS011;1581;51.568;6.998;2023-03-08T11:36:10;2.80;;;2.40;;
3141;SDS011;1581;51.568;6.998;2023-03-08T11:38:46;3.00;;;2.70;;
3141;SDS011;1581;51.568;6.998;2023-03-08T11:41:23;4.70;;;3.27;;
3141;SDS011;1581;51.568;6.998;2023-03-08T11:44:09;2.90;;;2.60;;
3141;SDS011;1581;51.568;6.998;2023-03-08T11:46:57;4.17;;;3.30;;
3141;SDS011;1581;51.568;6.998;2023-03-08T11:50:05;4.17;;;3.13;;
3141;SDS011;1581;51.568;6.998;2023-03-08T11:52:42;3.93;;;2.80;;
3141;SDS011;1581;51.568;6.998;2023-03-08T11:55:29;2.60;;;2.33;;
3141;SDS011;1581;51.568;6.998;2023-03-08T11:58:13;3.37;;;2.77;;
3141;SDS011;1581;51.568;6.998;2023-03-08T12:00:48;3.40;;;3.03;;
3141;SDS011;1581;51.568;6.998;2023-03-08T12:03:22;3.40;;;3.07;;
3141;SDS011;1581;51.568;6.998;2023-03-08T12:05:55;5.33;;;2.57;;
3141;SDS011;1581;51.568;6.998;2023-03-08T12:08:33;2.63;;;2.03;;
3141;SDS011;1581;51.568;6.998;2023-03-08T12:11:15;1.60;;;1.43;;
3141;SDS011;1581;51.568;6.998;2023-03-08T12:14:03;2.07;;;1.97;;
3141;SDS011;1581;51.568;6.998;2023-03-08T12:16:45;2.83;;;2.50;;
3141;SDS011;1581;51.568;6.998;2023-03-08T12:19:22;3.10;;;2.90;;
3141;SDS011;1581;51.568;6.998;2023-03-08T12:22:00;4.70;;;3.80;;
3141;SDS011;1581;51.568;6.998;2023-03-08T12:24:45;3.50;;;3.17;;
3141;SDS011;1581;51.568;6.998;2023-03-08T12:27:22;2.63;;;2.43;;
3141;SDS011;1581;51.568;6.998;2023-03-08T12:29:59;3.47;;;2.93;;
3141;SDS011;1581;51.568;6.998;2023-03-08T12:32:40;3.23;;;2.70;;
3141;SDS011;1581;51.568;6.998;2023-03-08T12:35:26;4.90;;;2.83;;
3141;SDS011;1581;51.568;6.998;2023-03-08T12:37:57;3.50;;;3.20;;
3141;SDS011;1581;51.568;6.998;2023-03-08T12:40:36;3.73;;;3.23;;
3141;SDS011;1581;51.568;6.998;2023-03-08T12:43:08;2.97;;;2.30;;
3141;SDS011;1581;51.568;6.998;2023-03-08T12:45:39;3.77;;;2.50;;
3141;SDS011;1581;51.568;6.998;2023-03-08T12:48:15;2.50;;;2.30;;
3141;SDS011;1581;51.568;6.998;2023-03-08T12:50:54;5.30;;;2.57;;
3141;SDS011;1581;51.568;6.998;2023-03-08T12:53:31;2.30;;;2.07;;
3141;SDS011;1581;51.568;6.998;2023-03-08T12:56:12;1.80;;;1.70;;
3141;SDS011;1581;51.568;6.998;2023-03-08T12:58:53;3.50;;;2.13;;
3141;SDS011;1581;51.568;6.998;2023-03-08T13:01:25;2.07;;;1.90;;
3141;SDS011;1581;51.568;6.998;2023-03-08T13:04:05;2.03;;;1.83;;
3141;SDS011;1581;51.568;6.998;2023-03-08T13:07:13;2.47;;;2.30;;
3141;SDS011;1581;51.568;6.998;2023-03-08T13:09:53;3.30;;;2.17;;
3141;SDS011;1581;51.568;6.998;2023-03-08T13:12:35;3.30;;;3.00;;
3141;SDS011;1581;51.568;6.998;2023-03-08T13:15:19;2.47;;;2.27;;
3141;SDS011;1581;51.568;6.998;2023-03-08T13:17:51;3.00;;;2.70;;
3141;SDS011;1581;51.568;6.998;2023-03-08T13:20:44;3.47;;;3.17;;
3141;SDS011;1581;51.568;6.998;2023-03-08T13:23:42;2.60;;;2.40;;
3141;SDS011;1581;51.568;6.998;2023-03-08T13:29:28;3.03;;;2.60;;
3141;SDS011;1581;51.568;6.998;2023-03-08T13:32:03;3.67;;;2.50;;
3141;SDS011;1581;51.568;6.998;2023-03-08T13:34:33;3.13;;;2.30;;
3141;SDS011;1581;51.568;6.998;2023-03-08T13:37:00;2.70;;;2.50;;
3141;SDS011;1581;51.568;6.998;2023-03-08T13:39:29;3.63;;;2.23;;
3141;SDS011;1581;51.568;6.998;2023-03-08T13:42:04;5.27;;;2.53;;
3141;SDS011;1581;51.568;6.998;2023-03-08T13:44:35;2.80;;;2.40;;
3141;SDS011;1581;51.568;6.998;2023-03-08T13:47:03;4.70;;;2.60;;
3141;SDS011;1581;51.568;6.998;2023-03-08T13:49:46;2.93;;;2.73;;
3141;SDS011;1581;51.568;6.998;2023-03-08T13:52:16;2.63;;;2.43;;
3141;SDS011;1581;51.568;6.998;2023-03-08T13:54:49;2.70;;;2.50;;
3141;SDS011;1581;51.568;6.998;2023-03-08T13:57:21;3.20;;;2.57;;
3141;SDS011;1581;51.568;6.998;2023-03-08T13:59:53;3.10;;;2.87;;
3141;SDS011;1581;51.568;6.998;2023-03-08T14:02:24;3.70;;;2.80;;
3141;SDS011;1581;51.568;6.998;2023-03-08T14:04:54;2.90;;;2.70;;
3141;SDS011;1581;51.568;6.998;2023-03-08T14:07:24;2.90;;;2.60;;
3141;SDS011;1581;51.568;6.998;2023-03-08T14:09:55;3.53;;;2.97;;
3141;SDS011;1581;51.568;6.998;2023-03-08T14:12:23;2.70;;;2.43;;
3141;SDS011;1581;51.568;6.998;2023-03-08T14:14:57;2.83;;;2.40;;
3141;SDS011;1581;51.568;6.998;2023-03-08T14:17:34;3.50;;;3.20;;
3141;SDS011;1581;51.568;6.998;2023-03-08T14:20:42;4.10;;;3.70;;
3141;SDS011;1581;51.568;6.998;2023-03-08T14:23:24;5.10;;;3.77;;
3141;SDS011;1581;51.568;6.998;2023-03-08T14:25:54;10.27;;;3.27;;
3141;SDS011;1581;51.568;6.998;2023-03-08T14:28:33;3.40;;;3.10;;
3141;SDS011;1581;51.568;6.998;2023-03-08T14:33:55;5.73;;;3.63;;
3141;SDS011;1581;51.568;6.998;2023-03-08T14:36:25;7.70;;;3.73;;
3141;SDS011;1581;51.568;6.998;2023-03-08T14:38:56;3.73;;;3.17;;
3141;SDS011;1581;51.568;6.998;2023-03-08T14:41:29;4.90;;;4.40;;
3141;SDS011;1581;51.568;6.998;2023-03-08T14:43:59;6.87;;;4.90;;
3141;SDS011;1581;51.568;6.998;2023-03-08T14:46:30;7.50;;;4.47;;
3141;SDS011;1581;51.568;6.998;2023-03-08T14:48:59;5.03;;;4.53;;
3141;SDS011;1581;51.568;6.998;2023-03-08T14:51:34;7.40;;;4.27;;
3141;SDS011;1581;51.568;6.998;2023-03-08T14:54:18;7.90;;;4.50;;
3141;SDS011;1581;51.568;6.998;2023-03-08T14:56:56;4.80;;;3.73;;
3141;SDS011;1581;51.568;6.998;2023-03-08T14:59:27;9.27;;;4.57;;
3141;SDS011;1581;51.568;6.998;2023-03-08T15:01:56;9.53;;;5.40;;
3141;SDS011;1581;51.568;6.998;2023-03-08T15:04:24;6.33;;;4.67;;
3141;SDS011;1581;51.568;6.998;2023-03-08T15:06:52;7.87;;;5.37;;
3141;SDS011;1581;51.568;6.998;2023-03-08T15:09:21;4.73;;;4.23;;
3141;SDS011;1581;51.568;6.998;2023-03-08T15:11:50;6.80;;;5.03;;
3141;SDS011;1581;51.568;6.998;2023-03-08T15:14:22;8.77;;;5.10;;
3141;SDS011;1581;51.568;6.998;2023-03-08T15:16:50;5.13;;;4.13;;
3141;SDS011;1581;51.568;6.998;2023-03-08T15:19:20;7.20;;;5.07;;
3141;SDS011;1581;51.568;6.998;2023-03-08T15:21:48;6.10;;;4.43;;
3141;SDS011;1581;51.568;6.998;2023-03-08T15:24:16;4.87;;;4.37;;
3141;SDS011;1581;51.568;6.998;2023-03-08T15:26:44;6.60;;;4.23;;
3141;SDS011;1581;51.568;6.998;2023-03-08T15:29:23;5.77;;;4.70;;
3141;SDS011;1581;51.568;6.998;2023-03-08T15:31:53;5.07;;;4.57;;
3141;SDS011;1581;51.568;6.998;2023-03-08T15:34:23;5.63;;;4.53;;
3141;SDS011;1581;51.568;6.998;2023-03-08T15:36:51;6.67;;;5.00;;
3141;SDS011;1581;51.568;6.998;2023-03-08T15:39:19;10.60;;;5.90;;